sensor_id;sensor_type;location;lat;lon;timestamp;P1;durP1;ratioP1;P2;durP2;ratioP2
48881;SDS011;57063;51.406;-2.402;2023-10-19T00:02:22;6.32;;;0.90;;
48881;SDS011;57063;51.406;-2.402;2023-10-19T00:04:48;6.68;;;1.13;;
48881;SDS011;57063;51.406;-2.402;2023-10-19T00:07:14;7.78;;;0.88;;
48881;SDS011;57063;51.406;-2.402;2023-10-19T00:09:40;3.80;;;0.98;;
48881;SDS011;57063;51.406;-2.402;2023-10-19T00:12:10;8.88;;;1.00;;
48881;SDS011;57063;51.406;-2.402;2023-10-19T00:14:35;6.05;;;0.90;;
48881;SDS011;57063;51.406;-2.402;2023-10-19T00:17:01;3.63;;;0.80;;
48881;SDS011;57063;51.406;-2.402;2023-10-19T00:19:36;6.30;;;1.15;;
48881;SDS011;57063;51.406;-2.402;2023-10-19T00:22:06;8.48;;;1.02;;
48881;SDS011;57063;51.406;-2.402;2023-10-19T00:24:34;3.10;;;0.75;;
48881;SDS011;57063;51.406;-2.402;2023-10-19T00:27:00;8.30;;;0.70;;
48881;SDS011;57063;51.406;-2.402;2023-10-19T00:29:35;7.35;;;1.35;;
48881;SDS011;57063;51.406;-2.402;2023-10-19T00:32:05;9.80;;;1.02;;
48881;SDS011;57063;51.406;-2.402;2023-10-19T00:34:37;4.63;;;0.70;;
48881;SDS011;57063;51.406;-2.402;2023-10-19T00:37:03;5.50;;;0.85;;
48881;SDS011;57063;51.406;-2.402;2023-10-19T00:39:34;9.38;;;1.00;;
48881;SDS011;57063;51.406;-2.402;2023-10-19T00:42:08;7.57;;;0.63;;
48881;SDS011;57063;51.406;-2.402;2023-10-19T00:44:33;7.90;;;1.20;;
48881;SDS011;57063;51.406;-2.402;2023-10-19T00:47:07;6.18;;;1.10;;
48881;SDS011;57063;51.406;-2.402;2023-10-19T00:49:38;6.40;;;1.10;;
48881;SDS011;57063;51.406;-2.402;2023-10-19T00:52:03;6.07;;;0.90;;
48881;SDS011;57063;51.406;-2.402;2023-10-19T00:54:41;11.43;;;1.58;;
48881;SDS011;57063;51.406;-2.402;2023-10-19T00:57:14;6.30;;;0.70;;
48881;SDS011;57063;51.406;-2.402;2023-10-19T00:59:44;4.82;;;0.98;;
48881;SDS011;57063;51.406;-2.402;2023-10-19T01:02:15;9.85;;;1.10;;
48881;SDS011;57063;51.406;-2.402;2023-10-19T01:04:54;7.30;;;0.77;;
48881;SDS011;57063;51.406;-2.402;2023-10-19T01:07:24;5.78;;;0.82;;
48881;SDS011;57063;51.406;-2.402;2023-10-19T01:09:57;5.93;;;0.90;;
48881;SDS011;57063;51.406;-2.402;2023-10-19T01:12:24;5.32;;;0.50;;
48881;SDS011;57063;51.406;-2.402;2023-10-19T01:15:05;4.35;;;0.70;;
48881;SDS011;57063;51.406;-2.402;2023-10-19T01:17:39;8.05;;;1.30;;
48881;SDS011;57063;51.406;-2.402;2023-10-19T01:20:12;6.82;;;0.80;;
48881;SDS011;57063;51.406;-2.402;2023-10-19T01:22:51;4.65;;;0.90;;
48881;SDS011;57063;51.406;-2.402;2023-10-19T01:28:31;7.15;;;0.85;;
48881;SDS011;57063;51.406;-2.402;2023-10-19T01:31:17;3.72;;;0.60;;
48881;SDS011;57063;51.406;-2.402;2023-10-19T01:33:53;5.28;;;0.80;;
48881;SDS011;57063;51.406;-2.402;2023-10-19T01:36:22;2.63;;;0.70;;
48881;SDS011;57063;51.406;-2.402;2023-10-19T01:38:48;4.07;;;0.60;;
48881;SDS011;57063;51.406;-2.402;2023-10-19T01:41:14;2.03;;;0.43;;
48881;SDS011;57063;51.406;-2.402;2023-10-19T01:43:47;3.88;;;0.73;;
48881;SDS011;57063;51.406;-2.402;2023-10-19T01:46:14;4.15;;;0.63;;
48881;SDS011;57063;51.406;-2.402;2023-10-19T01:48:49;7.22;;;2.03;;
48881;SDS011;57063;51.406;-2.402;2023-10-19T01:51:20;3.88;;;0.60;;
48881;SDS011;57063;51.406;-2.402;2023-10-19T01:53:48;2.83;;;0.57;;
48881;SDS011;57063;51.406;-2.402;2023-10-19T01:56:14;5.95;;;0.85;;
48881;SDS011;57063;51.406;-2.402;2023-10-19T01:58:44;17.52;;;1.00;;
48881;SDS011;57063;51.406;-2.402;2023-10-19T02:01:16;2.92;;;0.52;;
48881;SDS011;57063;51.406;-2.402;2023-10-19T02:06:13;3.50;;;0.70;;
48881;SDS011;57063;51.406;-2.402;2023-10-19T02:08:46;5.47;;;1.03;;
48881;SDS011;57063;51.406;-2.402;2023-10-19T02:11:23;4.32;;;0.82;;
48881;SDS011;57063;51.406;-2.402;2023-10-19T02:13:50;5.25;;;0.88;;
48881;SDS011;57063;51.406;-2.402;2023-10-19T02:16:17;4.93;;;1.17;;
48881;SDS011;57063;51.406;-2.402;2023-10-19T02:18:57;6.10;;;1.65;;
48881;SDS011;57063;51.406;-2.402;2023-10-19T02:21:23;6.85;;;1.10;;
48881;SDS011;57063;51.406;-2.402;2023-10-19T02:23:52;6.07;;;1.42;;
48881;SDS011;57063;51.406;-2.402;2023-10-19T02:26:18;3.08;;;1.33;;
48881;SDS011;57063;51.406;-2.402;2023-10-19T02:28:48;6.07;;;1.30;;
48881;SDS011;57063;51.406;-2.402;2023-10-19T02:31:16;6.50;;;1.80;;
48881;SDS011;57063;51.406;-2.402;2023-10-19T02:33:50;14.63;;;1.60;;
48881;SDS011;57063;51.406;-2.402;2023-10-19T02:36:26;17.17;;;2.38;;
48881;SDS011;57063;51.406;-2.402;2023-10-19T02:39:02;19.08;;;2.30;;
48881;SDS011;57063;51.406;-2.402;2023-10-19T02:41:32;14.40;;;1.48;;
48881;SDS011;57063;51.406;-2.402;2023-10-19T02:44:00;9.90;;;1.85;;
48881;SDS011;57063;51.406;-2.402;2023-10-19T02:46:29;14.73;;;2.38;;
48881;SDS011;57063;51.406;-2.402;2023-10-19T02:48:55;10.98;;;2.45;;
48881;SDS011;57063;51.406;-2.402;2023-10-19T02:51:20;18.73;;;4.55;;
48881;SDS011;57063;51.406;-2.402;2023-10-19T02:53:46;8.30;;;1.75;;
48881;SDS011;57063;51.406;-2.402;2023-10-19T02:56:12;14.13;;;2.17;;
48881;SDS011;57063;51.406;-2.402;2023-10-19T02:58:41;18.08;;;2.40;;
48881;SDS011;57063;51.406;-2.402;2023-10-19T03:01:26;12.10;;;1.60;;
48881;SDS011;57063;51.406;-2.402;2023-10-19T03:03:54;14.75;;;3.20;;
48881;SDS011;57063;51.406;-2.402;2023-10-19T03:06:24;16.20;;;2.40;;
48881;SDS011;57063;51.406;-2.402;2023-10-19T03:08:50;16.55;;;2.80;;
48881;SDS011;57063;51.406;-2.402;2023-10-19T03:11:26;16.30;;;2.53;;
48881;SDS011;57063;51.406;-2.402;2023-10-19T03:13:54;15.48;;;2.45;;
48881;SDS011;57063;51.406;-2.402;2023-10-19T03:16:22;18.83;;;2.42;;
48881;SDS011;57063;51.406;-2.402;2023-10-19T03:18:48;16.67;;;2.75;;
48881;SDS011;57063;51.406;-2.402;2023-10-19T03:21:15;24.98;;;2.65;;
48881;SDS011;57063;51.406;-2.402;2023-10-19T03:23:42;21.60;;;3.58;;
48881;SDS011;57063;51.406;-2.402;2023-10-19T03:26:07;16.02;;;2.63;;
48881;SDS011;57063;51.406;-2.402;2023-10-19T03:28:51;17.30;;;2.40;;
48881;SDS011;57063;51.406;-2.402;2023-10-19T03:31:23;18.67;;;2.80;;
48881;SDS011;57063;51.406;-2.402;2023-10-19T03:33:52;11.63;;;1.90;;
48881;SDS011;57063;51.406;-2.402;2023-10-19T03:36:22;11.90;;;1.83;;
48881;SDS011;57063;51.406;-2.402;2023-10-19T03:38:48;19.17;;;2.75;;
48881;SDS011;57063;51.406;-2.402;2023-10-19T03:41:15;34.30;;;3.45;;
48881;SDS011;57063;51.406;-2.402;2023-10-19T03:43:41;32.40;;;4.82;;
48881;SDS011;57063;51.406;-2.402;2023-10-19T03:46:07;13.93;;;3.00;;
48881;SDS011;57063;51.406;-2.402;2023-10-19T03:48:51;28.05;;;3.75;;
48881;SDS011;57063;51.406;-2.402;2023-10-19T03:51:16;32.60;;;4.20;;
48881;SDS011;57063;51.406;-2.402;2023-10-19T03:53:42;26.50;;;4.25;;
48881;SDS011;57063;51.406;-2.402;2023-10-19T03:56:20;37.60;;;5.05;;
48881;SDS011;57063;51.406;-2.402;2023-10-19T03:58:45;34.13;;;5.18;;
48881;SDS011;57063;51.406;-2.402;2023-10-19T04:01:15;26.45;;;3.90;;
48881;SDS011;57063;51.406;-2.402;2023-10-19T04:03:41;35.70;;;4.32;;
48881;SDS011;57063;51.406;-2.402;2023-10-19T04:06:08;28.67;;;4.20;;
48881;SDS011;57063;51.406;-2.402;2023-10-19T04:08:38;25.33;;;3.47;;
48881;SDS011;57063;51.406;-2.402;2023-10-19T04:11:04;30.27;;;4.65;;
48881;SDS011;57063;51.406;-2.402;2023-10-19T04:13:37;22.40;;;4.00;;
48881;SDS011;57063;51.406;-2.402;2023-10-19T04:16:03;21.27;;;3.72;;
48881;SDS011;57063;51.406;-2.402;2023-10-19T04:18:30;24.17;;;3.00;;
48881;SDS011;57063;51.406;-2.402;2023-10-19T04:20:56;14.45;;;2.22;;
48881;SDS011;57063;51.406;-2.402;2023-10-19T04:23:22;15.15;;;2.40;;
48881;SDS011;57063;51.406;-2.402;2023-10-19T04:25:51;18.20;;;2.95;;
48881;SDS011;57063;51.406;-2.402;2023-10-19T04:28:17;21.70;;;1.92;;
48881;SDS011;57063;51.406;-2.402;2023-10-19T04:30:47;16.52;;;2.13;;
48881;SDS011;57063;51.406;-2.402;2023-10-19T04:33:13;13.25;;;1.90;;
48881;SDS011;57063;51.406;-2.402;2023-10-19T04:35:41;12.75;;;2.05;;
48881;SDS011;57063;51.406;-2.402;2023-10-19T04:38:07;9.23;;;1.60;;
48881;SDS011;57063;51.406;-2.402;2023-10-19T04:40:32;13.15;;;1.95;;
48881;SDS011;57063;51.406;-2.402;2023-10-19T04:42:58;26.90;;;2.72;;
48881;SDS011;57063;51.406;-2.402;2023-10-19T04:45:24;13.13;;;1.52;;
48881;SDS011;57063;51.406;-2.402;2023-10-19T04:47:50;19.23;;;2.10;;
48881;SDS011;57063;51.406;-2.402;2023-10-19T04:50:17;9.43;;;1.80;;
48881;SDS011;57063;51.406;-2.402;2023-10-19T04:52:43;12.20;;;1.48;;
48881;SDS011;57063;51.406;-2.402;2023-10-19T04:55:09;16.95;;;2.13;;
48881;SDS011;57063;51.406;-2.402;2023-10-19T04:57:34;21.33;;;3.42;;
48881;SDS011;57063;51.406;-2.402;2023-10-19T05:00:00;9.52;;;1.50;;
48881;SDS011;57063;51.406;-2.402;2023-10-19T05:02:25;21.13;;;2.47;;
48881;SDS011;57063;51.406;-2.402;2023-10-19T05:04:51;21.70;;;2.88;;
48881;SDS011;57063;51.406;-2.402;2023-10-19T05:07:16;23.83;;;2.45;;
48881;SDS011;57063;51.406;-2.402;2023-10-19T05:09:42;21.83;;;2.72;;
48881;SDS011;57063;51.406;-2.402;2023-10-19T05:12:08;31.13;;;2.90;;
48881;SDS011;57063;51.406;-2.402;2023-10-19T05:14:39;21.70;;;3.25;;
48881;SDS011;57063;51.406;-2.402;2023-10-19T05:17:06;29.75;;;3.75;;
48881;SDS011;57063;51.406;-2.402;2023-10-19T05:19:34;16.55;;;2.83;;
48881;SDS011;57063;51.406;-2.402;2023-10-19T05:22:00;30.23;;;3.80;;
48881;SDS011;57063;51.406;-2.402;2023-10-19T05:24:26;21.17;;;4.57;;
48881;SDS011;57063;51.406;-2.402;2023-10-19T05:26:55;38.88;;;3.90;;
48881;SDS011;57063;51.406;-2.402;2023-10-19T05:29:21;27.67;;;4.28;;
48881;SDS011;57063;51.406;-2.402;2023-10-19T05:31:50;41.03;;;3.78;;
48881;SDS011;57063;51.406;-2.402;2023-10-19T05:34:21;28.75;;;3.58;;
48881;SDS011;57063;51.406;-2.402;2023-10-19T05:36:46;33.05;;;4.25;;
48881;SDS011;57063;51.406;-2.402;2023-10-19T05:39:14;39.78;;;8.93;;
48881;SDS011;57063;51.406;-2.402;2023-10-19T05:41:40;34.17;;;4.63;;
48881;SDS011;57063;51.406;-2.402;2023-10-19T05:44:05;35.03;;;4.05;;
48881;SDS011;57063;51.406;-2.402;2023-10-19T05:46:30;30.45;;;3.83;;
48881;SDS011;57063;51.406;-2.402;2023-10-19T05:48:56;29.30;;;4.53;;
48881;SDS011;57063;51.406;-2.402;2023-10-19T05:51:22;32.10;;;4.13;;
48881;SDS011;57063;51.406;-2.402;2023-10-19T05:53:48;31.75;;;5.07;;
48881;SDS011;57063;51.406;-2.402;2023-10-19T05:56:14;28.55;;;3.13;;
48881;SDS011;57063;51.406;-2.402;2023-10-19T05:58:42;39.20;;;4.82;;
48881;SDS011;57063;51.406;-2.402;2023-10-19T06:01:07;25.02;;;3.95;;
48881;SDS011;57063;51.406;-2.402;2023-10-19T06:03:33;43.50;;;4.63;;
48881;SDS011;57063;51.406;-2.402;2023-10-19T06:05:58;28.33;;;4.10;;
48881;SDS011;57063;51.406;-2.402;2023-10-19T06:08:23;33.22;;;4.70;;
48881;SDS011;57063;51.406;-2.402;2023-10-19T06:10:52;49.67;;;6.03;;
48881;SDS011;57063;51.406;-2.402;2023-10-19T06:13:18;37.08;;;4.10;;
48881;SDS011;57063;51.406;-2.402;2023-10-19T06:15:43;31.55;;;4.35;;
48881;SDS011;57063;51.406;-2.402;2023-10-19T06:18:09;36.33;;;4.85;;
48881;SDS011;57063;51.406;-2.402;2023-10-19T06:20:35;14.80;;;2.67;;
48881;SDS011;57063;51.406;-2.402;2023-10-19T06:23:01;25.65;;;3.95;;
48881;SDS011;57063;51.406;-2.402;2023-10-19T06:25:30;40.28;;;5.18;;
48881;SDS011;57063;51.406;-2.402;2023-10-19T06:27:57;42.13;;;5.47;;
48881;SDS011;57063;51.406;-2.402;2023-10-19T06:30:23;37.78;;;3.72;;
48881;SDS011;57063;51.406;-2.402;2023-10-19T06:32:58;27.88;;;4.40;;
48881;SDS011;57063;51.406;-2.402;2023-10-19T06:35:25;35.33;;;4.50;;
48881;SDS011;57063;51.406;-2.402;2023-10-19T06:37:52;33.50;;;4.75;;
48881;SDS011;57063;51.406;-2.402;2023-10-19T06:40:20;34.17;;;4.28;;
48881;SDS011;57063;51.406;-2.402;2023-10-19T06:42:47;25.60;;;3.65;;
48881;SDS011;57063;51.406;-2.402;2023-10-19T06:45:13;37.85;;;4.47;;
48881;SDS011;57063;51.406;-2.402;2023-10-19T06:47:40;29.83;;;3.60;;
48881;SDS011;57063;51.406;-2.402;2023-10-19T06:50:06;32.47;;;4.15;;
48881;SDS011;57063;51.406;-2.402;2023-10-19T06:52:34;29.25;;;4.03;;
48881;SDS011;57063;51.406;-2.402;2023-10-19T06:55:01;29.08;;;4.25;;
48881;SDS011;57063;51.406;-2.402;2023-10-19T06:57:28;38.00;;;5.05;;
48881;SDS011;57063;51.406;-2.402;2023-10-19T06:59:53;29.90;;;4.18;;
48881;SDS011;57063;51.406;-2.402;2023-10-19T07:02:19;45.55;;;5.72;;
48881;SDS011;57063;51.406;-2.402;2023-10-19T07:04:45;22.67;;;3.53;;
48881;SDS011;57063;51.406;-2.402;2023-10-19T07:07:12;38.45;;;4.32;;
48881;SDS011;57063;51.406;-2.402;2023-10-19T07:09:38;33.35;;;5.63;;
48881;SDS011;57063;51.406;-2.402;2023-10-19T07:12:04;36.92;;;5.00;;
48881;SDS011;57063;51.406;-2.402;2023-10-19T07:14:32;41.65;;;5.07;;
48881;SDS011;57063;51.406;-2.402;2023-10-19T07:16:57;32.63;;;5.18;;
48881;SDS011;57063;51.406;-2.402;2023-10-19T07:19:23;38.60;;;4.45;;
48881;SDS011;57063;51.406;-2.402;2023-10-19T07:21:48;39.17;;;5.60;;
48881;SDS011;57063;51.406;-2.402;2023-10-19T07:24:15;34.58;;;3.67;;
48881;SDS011;57063;51.406;-2.402;2023-10-19T07:26:43;30.83;;;3.83;;
48881;SDS011;57063;51.406;-2.402;2023-10-19T07:29:18;38.00;;;5.22;;
48881;SDS011;57063;51.406;-2.402;2023-10-19T07:31:44;37.90;;;4.97;;
48881;SDS011;57063;51.406;-2.402;2023-10-19T07:34:10;45.75;;;5.55;;
48881;SDS011;57063;51.406;-2.402;2023-10-19T07:36:40;27.30;;;3.65;;
48881;SDS011;57063;51.406;-2.402;2023-10-19T07:39:07;39.55;;;4.07;;
48881;SDS011;57063;51.406;-2.402;2023-10-19T07:41:39;29.58;;;3.95;;
48881;SDS011;57063;51.406;-2.402;2023-10-19T07:44:05;47.85;;;6.55;;
48881;SDS011;57063;51.406;-2.402;2023-10-19T07:46:30;45.17;;;5.78;;
48881;SDS011;57063;51.406;-2.402;2023-10-19T07:48:56;33.45;;;4.82;;
48881;SDS011;57063;51.406;-2.402;2023-10-19T07:51:24;30.42;;;3.78;;
48881;SDS011;57063;51.406;-2.402;2023-10-19T07:53:50;28.75;;;4.95;;
48881;SDS011;57063;51.406;-2.402;2023-10-19T07:56:16;33.72;;;4.75;;
48881;SDS011;57063;51.406;-2.402;2023-10-19T07:58:42;46.40;;;4.45;;
48881;SDS011;57063;51.406;-2.402;2023-10-19T08:01:07;43.97;;;6.25;;
48881;SDS011;57063;51.406;-2.402;2023-10-19T08:03:33;29.40;;;4.43;;
48881;SDS011;57063;51.406;-2.402;2023-10-19T08:05:59;38.30;;;4.70;;
48881;SDS011;57063;51.406;-2.402;2023-10-19T08:08:24;48.25;;;5.45;;
48881;SDS011;57063;51.406;-2.402;2023-10-19T08:10:49;33.92;;;4.90;;
48881;SDS011;57063;51.406;-2.402;2023-10-19T08:13:15;39.92;;;5.25;;
48881;SDS011;57063;51.406;-2.402;2023-10-19T08:15:40;40.83;;;5.80;;
48881;SDS011;57063;51.406;-2.402;2023-10-19T08:18:06;34.58;;;4.72;;
48881;SDS011;57063;51.406;-2.402;2023-10-19T08:20:31;36.97;;;5.07;;
48881;SDS011;57063;51.406;-2.402;2023-10-19T08:22:57;42.55;;;4.70;;
48881;SDS011;57063;51.406;-2.402;2023-10-19T08:25:26;44.22;;;6.13;;
48881;SDS011;57063;51.406;-2.402;2023-10-19T08:27:52;34.05;;;4.32;;
48881;SDS011;57063;51.406;-2.402;2023-10-19T08:30:21;38.17;;;4.93;;
48881;SDS011;57063;51.406;-2.402;2023-10-19T08:32:47;29.08;;;4.88;;
48881;SDS011;57063;51.406;-2.402;2023-10-19T08:35:14;26.10;;;3.25;;
48881;SDS011;57063;51.406;-2.402;2023-10-19T08:37:41;34.72;;;4.53;;
48881;SDS011;57063;51.406;-2.402;2023-10-19T08:40:07;22.95;;;3.17;;
48881;SDS011;57063;51.406;-2.402;2023-10-19T08:42:40;19.63;;;2.83;;
48881;SDS011;57063;51.406;-2.402;2023-10-19T08:45:12;20.73;;;3.72;;
48881;SDS011;57063;51.406;-2.402;2023-10-19T08:47:48;23.88;;;3.40;;
48881;SDS011;57063;51.406;-2.402;2023-10-19T08:50:21;16.77;;;2.90;;
48881;SDS011;57063;51.406;-2.402;2023-10-19T08:52:48;19.40;;;3.97;;
48881;SDS011;57063;51.406;-2.402;2023-10-19T08:55:20;26.55;;;3.40;;
48881;SDS011;57063;51.406;-2.402;2023-10-19T08:57:46;19.40;;;3.13;;
48881;SDS011;57063;51.406;-2.402;2023-10-19T09:00:14;15.30;;;2.92;;
48881;SDS011;57063;51.406;-2.402;2023-10-19T09:02:43;16.08;;;3.22;;
48881;SDS011;57063;51.406;-2.402;2023-10-19T09:05:09;13.18;;;2.20;;
48881;SDS011;57063;51.406;-2.402;2023-10-19T09:07:45;21.33;;;2.90;;
48881;SDS011;57063;51.406;-2.402;2023-10-19T09:10:20;17.83;;;3.03;;
48881;SDS011;57063;51.406;-2.402;2023-10-19T09:12:56;23.88;;;3.03;;
48881;SDS011;57063;51.406;-2.402;2023-10-19T09:15:24;26.75;;;4.22;;
48881;SDS011;57063;51.406;-2.402;2023-10-19T09:17:51;30.23;;;5.32;;
48881;SDS011;57063;51.406;-2.402;2023-10-19T09:20:19;33.38;;;4.97;;
48881;SDS011;57063;51.406;-2.402;2023-10-19T09:22:52;30.27;;;4.07;;
48881;SDS011;57063;51.406;-2.402;2023-10-19T09:25:23;29.47;;;4.50;;
48881;SDS011;57063;51.406;-2.402;2023-10-19T09:27:48;38.75;;;5.18;;
48881;SDS011;57063;51.406;-2.402;2023-10-19T09:30:15;27.83;;;4.95;;
48881;SDS011;57063;51.406;-2.402;2023-10-19T09:32:45;35.85;;;5.50;;
48881;SDS011;57063;51.406;-2.402;2023-10-19T09:35:12;27.15;;;5.00;;
48881;SDS011;57063;51.406;-2.402;2023-10-19T09:37:41;29.48;;;4.78;;
48881;SDS011;57063;51.406;-2.402;2023-10-19T09:40:08;30.38;;;5.32;;
48881;SDS011;57063;51.406;-2.402;2023-10-19T09:42:40;30.33;;;4.68;;
48881;SDS011;57063;51.406;-2.402;2023-10-19T09:45:11;28.63;;;4.57;;
48881;SDS011;57063;51.406;-2.402;2023-10-19T09:47:41;29.20;;;5.40;;
48881;SDS011;57063;51.406;-2.402;2023-10-19T09:50:11;36.03;;;5.53;;
48881;SDS011;57063;51.406;-2.402;2023-10-19T09:52:37;34.30;;;5.40;;
48881;SDS011;57063;51.406;-2.402;2023-10-19T09:57:44;27.95;;;5.45;;
48881;SDS011;57063;51.406;-2.402;2023-10-19T10:00:16;33.60;;;5.65;;
48881;SDS011;57063;51.406;-2.402;2023-10-19T10:10:43;32.08;;;4.38;;
48881;SDS011;57063;51.406;-2.402;2023-10-19T10:15:53;30.30;;;5.00;;
48881;SDS011;57063;51.406;-2.402;2023-10-19T10:18:19;25.88;;;4.43;;
48881;SDS011;57063;51.406;-2.402;2023-10-19T10:20:46;29.52;;;3.72;;
48881;SDS011;57063;51.406;-2.402;2023-10-19T10:23:19;23.00;;;4.35;;
48881;SDS011;57063;51.406;-2.402;2023-10-19T10:25:49;27.58;;;4.53;;
48881;SDS011;57063;51.406;-2.402;2023-10-19T10:28:18;32.67;;;5.05;;
48881;SDS011;57063;51.406;-2.402;2023-10-19T10:33:46;34.33;;;5.03;;
48881;SDS011;57063;51.406;-2.402;2023-10-19T10:36:16;32.33;;;4.75;;
48881;SDS011;57063;51.406;-2.402;2023-10-19T10:38:43;27.95;;;3.75;;
48881;SDS011;57063;51.406;-2.402;2023-10-19T10:41:19;23.75;;;4.43;;
48881;SDS011;57063;51.406;-2.402;2023-10-19T10:43:53;30.95;;;5.20;;
48881;SDS011;57063;51.406;-2.402;2023-10-19T10:46:20;32.50;;;5.10;;
48881;SDS011;57063;51.406;-2.402;2023-10-19T10:48:47;27.20;;;4.45;;
48881;SDS011;57063;51.406;-2.402;2023-10-19T10:51:17;22.08;;;3.55;;
48881;SDS011;57063;51.406;-2.402;2023-10-19T10:53:50;21.52;;;3.90;;
48881;SDS011;57063;51.406;-2.402;2023-10-19T10:56:17;26.35;;;4.18;;
48881;SDS011;57063;51.406;-2.402;2023-10-19T10:58:44;27.70;;;4.13;;
48881;SDS011;57063;51.406;-2.402;2023-10-19T11:01:09;26.90;;;4.55;;
48881;SDS011;57063;51.406;-2.402;2023-10-19T11:03:35;23.75;;;4.90;;
48881;SDS011;57063;51.406;-2.402;2023-10-19T11:06:08;24.17;;;3.42;;
48881;SDS011;57063;51.406;-2.402;2023-10-19T11:08:34;19.17;;;3.95;;
48881;SDS011;57063;51.406;-2.402;2023-10-19T11:11:02;21.88;;;3.38;;
48881;SDS011;57063;51.406;-2.402;2023-10-19T11:13:29;21.10;;;3.75;;
48881;SDS011;57063;51.406;-2.402;2023-10-19T11:15:58;19.73;;;3.72;;
48881;SDS011;57063;51.406;-2.402;2023-10-19T11:18:30;19.55;;;3.90;;
48881;SDS011;57063;51.406;-2.402;2023-10-19T11:21:11;20.05;;;3.50;;
48881;SDS011;57063;51.406;-2.402;2023-10-19T11:26:05;18.55;;;3.17;;
48881;SDS011;57063;51.406;-2.402;2023-10-19T11:28:31;30.95;;;4.72;;
48881;SDS011;57063;51.406;-2.402;2023-10-19T11:31:14;20.48;;;3.75;;
48881;SDS011;57063;51.406;-2.402;2023-10-19T11:33:41;22.15;;;4.50;;
48881;SDS011;57063;51.406;-2.402;2023-10-19T11:36:08;18.58;;;3.50;;
48881;SDS011;57063;51.406;-2.402;2023-10-19T11:38:35;21.35;;;3.83;;
48881;SDS011;57063;51.406;-2.402;2023-10-19T11:41:01;21.35;;;3.97;;
48881;SDS011;57063;51.406;-2.402;2023-10-19T11:43:28;19.65;;;3.88;;
48881;SDS011;57063;51.406;-2.402;2023-10-19T11:45:53;22.77;;;4.35;;
48881;SDS011;57063;51.406;-2.402;2023-10-19T11:48:19;24.67;;;3.85;;
48881;SDS011;57063;51.406;-2.402;2023-10-19T11:50:45;19.27;;;3.30;;
48881;SDS011;57063;51.406;-2.402;2023-10-19T11:53:10;31.25;;;4.95;;
48881;SDS011;57063;51.406;-2.402;2023-10-19T11:55:35;20.60;;;4.82;;
48881;SDS011;57063;51.406;-2.402;2023-10-19T11:58:01;20.42;;;3.90;;
48881;SDS011;57063;51.406;-2.402;2023-10-19T12:00:26;16.13;;;3.15;;
48881;SDS011;57063;51.406;-2.402;2023-10-19T12:02:58;16.25;;;3.70;;
48881;SDS011;57063;51.406;-2.402;2023-10-19T12:05:24;27.13;;;4.38;;
48881;SDS011;57063;51.406;-2.402;2023-10-19T12:07:50;20.55;;;4.35;;
48881;SDS011;57063;51.406;-2.402;2023-10-19T12:10:17;23.67;;;4.05;;
48881;SDS011;57063;51.406;-2.402;2023-10-19T12:12:45;14.98;;;2.95;;
48881;SDS011;57063;51.406;-2.402;2023-10-19T12:15:10;27.00;;;4.13;;
48881;SDS011;57063;51.406;-2.402;2023-10-19T12:17:37;25.85;;;3.92;;
48881;SDS011;57063;51.406;-2.402;2023-10-19T12:20:03;22.65;;;3.85;;
48881;SDS011;57063;51.406;-2.402;2023-10-19T12:22:31;17.60;;;3.03;;
48881;SDS011;57063;51.406;-2.402;2023-10-19T12:25:02;21.10;;;3.17;;
48881;SDS011;57063;51.406;-2.402;2023-10-19T12:27:28;18.90;;;3.58;;
48881;SDS011;57063;51.406;-2.402;2023-10-19T12:29:54;21.90;;;3.08;;
48881;SDS011;57063;51.406;-2.402;2023-10-19T12:32:19;24.88;;;4.32;;
48881;SDS011;57063;51.406;-2.402;2023-10-19T12:34:46;25.20;;;4.85;;
48881;SDS011;57063;51.406;-2.402;2023-10-19T12:37:15;17.75;;;3.25;;
48881;SDS011;57063;51.406;-2.402;2023-10-19T12:39:42;17.88;;;3.15;;
48881;SDS011;57063;51.406;-2.402;2023-10-19T12:42:10;18.92;;;3.30;;
48881;SDS011;57063;51.406;-2.402;2023-10-19T12:44:36;24.58;;;4.13;;
48881;SDS011;57063;51.406;-2.402;2023-10-19T12:47:06;20.55;;;2.90;;
48881;SDS011;57063;51.406;-2.402;2023-10-19T12:49:41;23.15;;;3.00;;
48881;SDS011;57063;51.406;-2.402;2023-10-19T12:52:07;25.30;;;3.28;;
48881;SDS011;57063;51.406;-2.402;2023-10-19T12:54:36;25.05;;;3.15;;
48881;SDS011;57063;51.406;-2.402;2023-10-19T12:57:02;16.92;;;2.95;;
48881;SDS011;57063;51.406;-2.402;2023-10-19T12:59:29;17.33;;;2.63;;
48881;SDS011;57063;51.406;-2.402;2023-10-19T13:01:55;20.15;;;3.47;;
48881;SDS011;57063;51.406;-2.402;2023-10-19T13:04:23;23.98;;;3.47;;
48881;SDS011;57063;51.406;-2.402;2023-10-19T13:09:23;19.85;;;4.40;;
48881;SDS011;57063;51.406;-2.402;2023-10-19T13:11:55;22.60;;;3.45;;
48881;SDS011;57063;51.406;-2.402;2023-10-19T13:14:21;19.95;;;2.90;;
48881;SDS011;57063;51.406;-2.402;2023-10-19T13:16:46;23.00;;;2.92;;
48881;SDS011;57063;51.406;-2.402;2023-10-19T13:19:15;23.77;;;4.65;;
48881;SDS011;57063;51.406;-2.402;2023-10-19T13:21:45;16.30;;;3.15;;
48881;SDS011;57063;51.406;-2.402;2023-10-19T13:24:10;31.02;;;4.70;;
48881;SDS011;57063;51.406;-2.402;2023-10-19T13:26:36;17.45;;;2.88;;
48881;SDS011;57063;51.406;-2.402;2023-10-19T13:29:03;15.20;;;2.47;;
48881;SDS011;57063;51.406;-2.402;2023-10-19T13:31:28;16.38;;;3.35;;
48881;SDS011;57063;51.406;-2.402;2023-10-19T13:33:54;20.73;;;3.15;;
48881;SDS011;57063;51.406;-2.402;2023-10-19T13:36:20;22.20;;;4.05;;
48881;SDS011;57063;51.406;-2.402;2023-10-19T13:38:45;18.42;;;3.65;;
48881;SDS011;57063;51.406;-2.402;2023-10-19T13:41:11;23.05;;;3.35;;
48881;SDS011;57063;51.406;-2.402;2023-10-19T13:43:36;23.63;;;3.67;;
48881;SDS011;57063;51.406;-2.402;2023-10-19T13:46:04;24.52;;;3.53;;
48881;SDS011;57063;51.406;-2.402;2023-10-19T13:48:30;22.25;;;3.35;;
48881;SDS011;57063;51.406;-2.402;2023-10-19T13:50:57;15.68;;;3.63;;
48881;SDS011;57063;51.406;-2.402;2023-10-19T13:53:28;24.73;;;3.92;;
48881;SDS011;57063;51.406;-2.402;2023-10-19T13:55:55;19.73;;;3.53;;
48881;SDS011;57063;51.406;-2.402;2023-10-19T13:58:20;15.98;;;3.17;;
48881;SDS011;57063;51.406;-2.402;2023-10-19T14:00:46;20.48;;;2.88;;
48881;SDS011;57063;51.406;-2.402;2023-10-19T14:03:12;22.85;;;2.90;;
48881;SDS011;57063;51.406;-2.402;2023-10-19T14:05:42;33.00;;;6.45;;
48881;SDS011;57063;51.406;-2.402;2023-10-19T14:08:12;19.42;;;3.47;;
48881;SDS011;57063;51.406;-2.402;2023-10-19T14:10:38;20.98;;;3.25;;
48881;SDS011;57063;51.406;-2.402;2023-10-19T14:13:06;26.00;;;3.47;;
48881;SDS011;57063;51.406;-2.402;2023-10-19T14:15:36;21.90;;;3.20;;
48881;SDS011;57063;51.406;-2.402;2023-10-19T14:18:02;23.13;;;3.67;;
48881;SDS011;57063;51.406;-2.402;2023-10-19T14:20:29;19.83;;;3.47;;
48881;SDS011;57063;51.406;-2.402;2023-10-19T14:22:55;16.67;;;3.90;;
48881;SDS011;57063;51.406;-2.402;2023-10-19T14:25:21;19.88;;;2.70;;
48881;SDS011;57063;51.406;-2.402;2023-10-19T14:27:49;20.73;;;3.47;;
48881;SDS011;57063;51.406;-2.402;2023-10-19T14:30:17;18.52;;;2.55;;
48881;SDS011;57063;51.406;-2.402;2023-10-19T14:32:46;23.02;;;3.50;;
48881;SDS011;57063;51.406;-2.402;2023-10-19T14:35:12;21.00;;;3.33;;
48881;SDS011;57063;51.406;-2.402;2023-10-19T14:37:40;16.00;;;2.92;;
48881;SDS011;57063;51.406;-2.402;2023-10-19T14:40:10;16.30;;;3.00;;
48881;SDS011;57063;51.406;-2.402;2023-10-19T14:42:37;18.63;;;3.10;;
48881;SDS011;57063;51.406;-2.402;2023-10-19T14:45:07;24.75;;;4.05;;
48881;SDS011;57063;51.406;-2.402;2023-10-19T14:47:37;20.63;;;3.28;;
48881;SDS011;57063;51.406;-2.402;2023-10-19T14:50:06;25.53;;;3.63;;
48881;SDS011;57063;51.406;-2.402;2023-10-19T14:52:41;22.10;;;4.15;;
48881;SDS011;57063;51.406;-2.402;2023-10-19T14:55:09;26.75;;;3.33;;
48881;SDS011;57063;51.406;-2.402;2023-10-19T14:57:36;19.85;;;3.65;;